KCUL

Carmi Municipal Airport

Carmi, Illinois, USA
METAR KCUL 222112Z AUTO 20008KT 10SM CLR 19/03 A3014 RMK AO2
Observed Flight Rules
Oct-22 @ 21:12 UTC (19 minutes ago) Visual Flight Rules
Wind Visibility Clouds
200° at 8 knots 10 miles
  • Clear skies
Temperatures Readings
Current 19°C / 66°F
Dewpoint 3°C / 37°F
Humidity 35%
Altimeter 30.14" Hg
Pressure 1021 hPa
Elevation 118
METAR KCUL 222112Z AUTO 20008KT 10SM CLR 19/03 A3014 RMK AO2
Observed Flight Rules
Oct-22 @ 21:12 UTC
(19 minutes ago)
VFR
Wind Visibility
200° at 8 knots 10 miles
Clouds
  • Clear skies
Temperature Dewpoint
19°C / 66°F 3°C / 37°F
Humidity Altimeter Pressure
35% 30.14" Hg 1021 hPa